Stuart, VA (24171)

9:19 PM EST on February 19, 2017 (GMT -0500)
Ashby Subdivision | | Change Station

Elev 1459 ft 36.63 °N, 80.28 °W | Updated 4 seconds ago

Clear
Clear
54.7 °F
Feels Like 54.7 °F
N
3.6
Wind Variable Wind from WNW
Gusts 7.4 mph

Today
High -- | Low -- °F
--% Chance of Precip.
Yesterday
High -- | Low -- °F
Precip. -- in
Pressure 30.12 in
Visibility 10.0 miles
Clouds Clear
Dew Point 41 °F
Humidity 60%
Rainfall 0.00 in
Snow Depth Not available.
7:04 AM 6:06 PM
Last Quarter, 38% visible
METAR KMTV 200155Z AUTO 30004KT 10SM CLR 09/04 A3012 RMK AO2 T00900040
Pressure 30.12 in
Visibility 10.0 miles
Clouds Clear
Dew Point 41 °F
Humidity 60%
Rainfall 0.00 in
Snow Depth Not available.
7:04 AM 6:06 PM
Last Quarter, 38% visible
METAR KMTV 200155Z AUTO 30004KT 10SM CLR 09/04 A3012 RMK AO2 T00900040

Get Your Daily Forecast Email!

Thanks for signing up!

Be on the lookout for a verification email in your inbox.

You'll start receiving the daily forecast at 8 AM.

×

10-Day Weather Forecast

Almanac

Astronomy

Feb. 19, 2017 Rise Set
Actual Time
Civil Twilight
Nautical Twilight
Astronomical Twilight
Moon
Length of Visible Light
Length of Day
Tomorrow will be .
, % of the Moon is Illuminated

Today's Extremes

State Highs State Lows

Community

WunderPhotos

Upload Photos

1,962,540 photos uploaded!

WunderBlog® & News

Nearby

Air Quality

  Air Quality AQ Index Pollutant
Not available.

Snow Depth

Station Depth Elevation

Earthquake Activity

City Distance Mag. Time & Date
Minimum magnitude displayed is 2.5.

Coastal Water Temperatures

Place Temperature

Stations

Nearby Weather Stations

Station Location Temp. Windchill Dew Point Humidity Wind Precip. Elev Updated Type
                   

Watches & Warnings

There are currently no watches in effect.